createdAt,value
2023-04-02T00:01:36.836Z,6.95
2023-04-02T00:04:14.465Z,4.63
2023-04-02T00:06:45.774Z,5.13
2023-04-02T00:09:37.160Z,4.75
2023-04-02T00:12:20.692Z,5.45
2023-04-02T00:14:52.739Z,5.07
2023-04-02T00:17:24.606Z,4.70
2023-04-02T00:19:58.508Z,6.57
2023-04-02T00:22:31.650Z,4.90
2023-04-02T00:25:02.663Z,5.43
2023-04-02T00:27:32.125Z,5.75
2023-04-02T00:30:00.996Z,5.70
2023-04-02T00:32:32.982Z,5.63
2023-04-02T00:35:03.353Z,6.65
2023-04-02T00:37:38.950Z,6.05
2023-04-02T00:40:16.789Z,8.10
2023-04-02T00:42:46.500Z,7.90
2023-04-02T00:45:23.025Z,7.70
2023-04-02T00:47:51.612Z,10.50
2023-04-02T00:50:29.053Z,11.52
2023-04-02T00:52:59.930Z,8.10
2023-04-02T00:55:36.725Z,4.82
2023-04-02T00:58:06.178Z,10.40
2023-04-02T01:00:36.042Z,8.15
2023-04-02T01:03:30.088Z,10.02
2023-04-02T01:06:05.528Z,9.35
2023-04-02T01:08:55.737Z,9.77
2023-04-02T01:11:46.833Z,9.75
2023-04-02T01:14:21.274Z,11.23
2023-04-02T01:16:56.599Z,7.40
2023-04-02T01:19:52.761Z,8.20
2023-04-02T01:22:30.808Z,8.60
2023-04-02T01:24:59.649Z,8.88
2023-04-02T01:27:33.646Z,7.70
2023-04-02T01:30:05.209Z,9.65
2023-04-02T01:32:33.667Z,7.25
2023-04-02T01:35:02.300Z,9.13
2023-04-02T01:37:40.317Z,9.60
2023-04-02T01:40:22.682Z,6.47
2023-04-02T01:42:57.435Z,8.85
2023-04-02T01:45:27.129Z,7.40
2023-04-02T01:47:55.585Z,7.93
2023-04-02T01:50:32.245Z,10.15
2023-04-02T01:53:03.377Z,6.93
2023-04-02T01:55:36.423Z,10.27
2023-04-02T01:58:05.754Z,10.90
2023-04-02T02:00:37.458Z,7.40
2023-04-02T02:03:08.684Z,9.15
2023-04-02T02:05:37.501Z,7.88
2023-04-02T02:08:08.424Z,9.00
2023-04-02T02:10:39.992Z,7.05
2023-04-02T02:13:08.155Z,3.92
2023-04-02T02:15:37.805Z,6.75
2023-04-02T02:18:07.758Z,7.55
2023-04-02T02:20:37.092Z,6.25
2023-04-02T02:23:06.005Z,8.05
2023-04-02T02:25:36.200Z,7.47
2023-04-02T02:28:09.008Z,7.97
2023-04-02T02:30:40.853Z,7.32
2023-04-02T02:33:16.397Z,6.85
2023-04-02T02:35:49.586Z,6.60
2023-04-02T02:38:43.873Z,7.30
2023-04-02T02:41:20.018Z,8.38
2023-04-02T02:43:54.493Z,2.33
2023-04-02T02:46:26.548Z,6.90
2023-04-02T02:48:56.542Z,3.63
2023-04-02T02:51:29.681Z,11.75
2023-04-02T02:54:03.558Z,7.07
2023-04-02T02:56:36.912Z,10.38
2023-04-02T02:59:08.469Z,3.92
2023-04-02T03:01:39.033Z,9.80
2023-04-02T03:04:07.584Z,7.25
2023-04-02T03:06:36.711Z,7.28
2023-04-02T03:09:14.009Z,5.72
2023-04-02T03:11:48.361Z,8.02
2023-04-02T03:14:24.078Z,10.73
2023-04-02T03:17:01.299Z,9.90
2023-04-02T03:19:35.583Z,7.35
2023-04-02T03:22:09.827Z,10.55
2023-04-02T03:24:46.694Z,9.80
2023-04-02T03:27:19.388Z,10.55
2023-04-02T03:29:55.753Z,9.77
2023-04-02T03:32:30.450Z,9.80
2023-04-02T03:35:01.413Z,6.45
2023-04-02T03:37:33.911Z,7.55
2023-04-02T03:40:07.287Z,9.50
2023-04-02T03:42:43.687Z,7.90
2023-04-02T03:45:17.279Z,9.23
2023-04-02T03:47:52.456Z,8.13
2023-04-02T03:50:26.310Z,7.18
2023-04-02T03:52:54.742Z,7.15
2023-04-02T03:55:26.224Z,8.50
2023-04-02T03:58:01.753Z,8.38
2023-04-02T04:03:11.288Z,7.18
2023-04-02T04:05:45.918Z,7.78
2023-04-02T04:08:18.757Z,11.37
2023-04-02T04:10:51.617Z,9.80
2023-04-02T04:13:26.058Z,8.70
2023-04-02T04:16:00.433Z,12.95
2023-04-02T04:18:38.010Z,13.45
2023-04-02T04:21:13.257Z,13.25
2023-04-02T04:23:50.848Z,8.57
2023-04-02T04:26:24.693Z,13.00
2023-04-02T04:29:05.511Z,12.65
2023-04-02T04:31:39.899Z,8.45
2023-04-02T04:34:16.460Z,11.85
2023-04-02T04:36:54.263Z,6.57
2023-04-02T04:39:29.771Z,11.60
2023-04-02T04:42:01.520Z,14.85
2023-04-02T04:44:45.755Z,11.85
2023-04-02T04:47:20.047Z,10.82
2023-04-02T04:49:55.111Z,10.10
2023-04-02T04:52:27.038Z,4.93
2023-04-02T04:54:55.242Z,10.38
2023-04-02T04:57:31.398Z,8.80
2023-04-02T05:00:07.035Z,12.75
2023-04-02T05:02:42.606Z,11.63
2023-04-02T05:05:21.526Z,11.25
2023-04-02T05:07:54.173Z,10.57
2023-04-02T05:10:30.183Z,10.10
2023-04-02T05:13:03.910Z,9.68
2023-04-02T05:15:37.027Z,7.30
2023-04-02T05:18:19.398Z,7.38
2023-04-02T05:20:53.681Z,10.30
2023-04-02T05:23:27.286Z,9.25
2023-04-02T05:26:01.190Z,9.48
2023-04-02T05:28:35.783Z,9.75
2023-04-02T05:31:08.352Z,10.53
2023-04-02T05:33:38.042Z,10.38
2023-04-02T05:36:11.692Z,8.93
2023-04-02T05:38:46.456Z,8.35
2023-04-02T05:41:23.927Z,7.83
2023-04-02T05:44:03.344Z,8.98
2023-04-02T05:46:38.168Z,8.75
2023-04-02T05:49:13.010Z,11.50
2023-04-02T05:51:46.606Z,9.07
2023-04-02T05:54:23.313Z,8.77
2023-04-02T05:56:57.407Z,7.45
2023-04-02T05:59:29.879Z,8.50
2023-04-02T06:02:03.501Z,9.15
2023-04-02T06:04:38.830Z,9.95
2023-04-02T06:07:13.501Z,8.07
2023-04-02T06:09:47.057Z,10.18
2023-04-02T06:12:23.811Z,6.93
2023-04-02T06:14:51.975Z,9.40
2023-04-02T06:17:21.762Z,8.77
2023-04-02T06:19:51.046Z,11.73
2023-04-02T06:22:28.049Z,7.97
2023-04-02T06:25:01.783Z,10.50
2023-04-02T06:27:30.332Z,8.43
2023-04-02T06:30:03.666Z,7.45
2023-04-02T06:32:31.950Z,13.70
2023-04-02T06:35:00.134Z,10.60
2023-04-02T06:37:34.008Z,12.02
2023-04-02T06:40:03.789Z,9.45
2023-04-02T06:42:35.381Z,9.52
2023-04-02T06:45:03.865Z,8.43
2023-04-02T06:47:36.430Z,9.73
2023-04-02T06:50:12.740Z,9.18
2023-04-02T06:52:47.498Z,8.73
2023-04-02T06:55:35.243Z,4.07
2023-04-02T06:58:03.820Z,8.38
2023-04-02T07:00:40.592Z,8.07
2023-04-02T07:03:14.765Z,7.00
2023-04-02T07:05:43.246Z,4.38
2023-04-02T07:08:12.814Z,2.88
2023-04-02T07:10:41.209Z,6.78
2023-04-02T07:13:13.284Z,5.22
2023-04-02T07:15:41.485Z,4.88
2023-04-02T07:18:16.578Z,6.90
2023-04-02T07:20:44.675Z,3.83
2023-04-02T07:23:16.881Z,7.40
2023-04-02T07:25:45.181Z,8.60
2023-04-02T07:28:14.991Z,6.90
2023-04-02T07:30:43.581Z,7.70
2023-04-02T07:33:14.759Z,7.32
2023-04-02T07:35:43.080Z,8.63
2023-04-02T07:38:11.310Z,8.02
2023-04-02T07:40:41.254Z,2.53
2023-04-02T07:43:09.919Z,9.30
2023-04-02T07:45:38.291Z,8.15
2023-04-02T07:48:07.716Z,9.52
2023-04-02T07:50:36.749Z,6.72
2023-04-02T07:53:07.098Z,7.32
2023-04-02T07:55:35.669Z,3.90
2023-04-02T07:58:05.325Z,8.35
2023-04-02T08:00:33.666Z,11.68
2023-04-02T08:03:01.830Z,8.13
2023-04-02T08:05:30.081Z,8.48
2023-04-02T08:07:58.401Z,9.23
2023-04-02T08:10:26.634Z,9.77
2023-04-02T08:12:54.743Z,7.80
2023-04-02T08:15:24.311Z,10.02
2023-04-02T08:17:53.620Z,7.47
2023-04-02T08:20:23.587Z,8.60
2023-04-02T08:22:52.242Z,9.20
2023-04-02T08:25:20.752Z,4.28
2023-04-02T08:27:49.725Z,4.30
2023-04-02T08:30:18.782Z,6.75
2023-04-02T08:32:48.521Z,7.97
2023-04-02T08:35:18.525Z,6.70
2023-04-02T08:37:46.725Z,8.77
2023-04-02T08:40:24.054Z,9.15
2023-04-02T08:43:12.414Z,7.68
2023-04-02T08:45:57.069Z,7.95
2023-04-02T08:48:27.171Z,6.28
2023-04-02T08:50:55.485Z,6.72
2023-04-02T08:53:26.794Z,7.55
2023-04-02T08:56:05.413Z,7.25
2023-04-02T08:58:42.986Z,4.90
2023-04-02T09:01:23.125Z,6.32
2023-04-02T09:03:56.162Z,6.75
2023-04-02T09:06:24.645Z,6.13
2023-04-02T09:08:54.380Z,5.72
2023-04-02T09:11:27.414Z,6.05
2023-04-02T09:13:57.892Z,6.93
2023-04-02T09:16:39.104Z,5.55
2023-04-02T09:19:18.589Z,6.60
2023-04-02T09:21:54.086Z,6.32
2023-04-02T09:26:50.130Z,5.28
2023-04-02T09:29:36.741Z,5.85
2023-04-02T09:32:23.127Z,5.75
2023-04-02T09:35:15.063Z,5.68
2023-04-02T09:38:12.924Z,5.15
2023-04-02T09:40:47.581Z,5.45
2023-04-02T09:43:17.928Z,6.37
2023-04-02T09:45:56.495Z,5.95
2023-04-02T09:48:27.504Z,5.35
2023-04-02T09:51:08.392Z,5.00
2023-04-02T09:53:39.451Z,5.50
2023-04-02T09:56:17.771Z,4.75
2023-04-02T09:58:47.760Z,3.97
2023-04-02T10:01:29.533Z,5.03
2023-04-02T10:03:59.398Z,3.78
2023-04-02T10:06:30.414Z,4.45
2023-04-02T10:08:59.328Z,3.72
2023-04-02T10:11:43.808Z,3.92
2023-04-02T10:14:20.217Z,1.85
2023-04-02T10:16:53.142Z,4.40
2023-04-02T10:19:29.775Z,3.70
2023-04-02T10:22:02.026Z,4.00
2023-04-02T10:24:30.297Z,3.67
2023-04-02T10:27:06.721Z,2.97
2023-04-02T10:29:52.694Z,3.83
2023-04-02T10:34:57.432Z,3.72
2023-04-02T10:37:58.737Z,4.22
2023-04-02T10:40:30.135Z,3.85
2023-04-02T10:43:34.420Z,3.60
2023-04-02T10:46:06.871Z,1.48
2023-04-02T10:48:44.663Z,3.05
2023-04-02T10:51:25.798Z,3.67
2023-04-02T10:54:03.884Z,3.13
2023-04-02T10:56:44.137Z,2.35
2023-04-02T10:59:22.353Z,3.33
2023-04-02T11:01:53.831Z,3.58
2023-04-02T11:04:27.792Z,3.47
2023-04-02T11:07:10.997Z,3.20
2023-04-02T11:09:44.803Z,3.50
2023-04-02T11:12:21.532Z,3.63
2023-04-02T11:14:51.426Z,2.80
2023-04-02T11:17:20.784Z,3.05
2023-04-02T11:19:49.003Z,3.20
2023-04-02T11:22:18.842Z,3.03
2023-04-02T11:24:49.769Z,2.70
2023-04-02T11:27:22.853Z,2.80
2023-04-02T11:29:52.965Z,2.53
2023-04-02T11:32:39.390Z,2.85
2023-04-02T11:35:27.765Z,3.17
2023-04-02T11:37:57.441Z,3.47
2023-04-02T11:40:48.845Z,3.50
2023-04-02T11:44:02.931Z,2.67
2023-04-02T11:46:46.302Z,2.78
2023-04-02T11:49:58.318Z,2.42
2023-04-02T11:52:30.240Z,2.80
2023-04-02T11:55:01.663Z,2.88
2023-04-02T11:58:10.502Z,2.45
2023-04-02T12:01:14.909Z,2.60
2023-04-02T12:04:19.610Z,2.78
2023-04-02T12:06:59.962Z,1.92
2023-04-02T12:09:30.904Z,2.60
2023-04-02T12:12:01.875Z,2.60
2023-04-02T12:14:42.544Z,2.58
2023-04-02T12:17:19.619Z,2.33
2023-04-02T12:19:50.401Z,2.60
2023-04-02T12:22:23.260Z,2.88
2023-04-02T12:24:52.008Z,2.80
2023-04-02T12:27:23.566Z,3.35
2023-04-02T12:29:53.207Z,2.65
2023-04-02T12:32:28.501Z,2.78
2023-04-02T12:35:06.304Z,3.10
2023-04-02T12:37:34.479Z,2.10
2023-04-02T12:40:07.243Z,2.42
2023-04-02T12:42:37.251Z,2.25
2023-04-02T12:45:08.855Z,2.58
2023-04-02T12:47:37.192Z,2.63
2023-04-02T12:50:07.018Z,2.08
2023-04-02T12:52:35.906Z,2.42
2023-04-02T12:55:06.221Z,2.40
2023-04-02T12:57:39.817Z,2.13
2023-04-02T13:00:33.246Z,2.22
2023-04-02T13:03:17.823Z,1.15
2023-04-02T13:05:50.627Z,2.70
2023-04-02T13:08:21.553Z,3.35
2023-04-02T13:10:55.728Z,2.95
2023-04-02T13:13:28.343Z,2.70
2023-04-02T13:16:27.830Z,2.10
2023-04-02T13:19:26.522Z,2.47
2023-04-02T13:21:55.471Z,2.42
2023-04-02T13:24:24.942Z,2.42
2023-04-02T13:26:56.060Z,2.70
2023-04-02T13:29:29.432Z,3.10
2023-04-02T13:32:01.189Z,2.40
2023-04-02T13:34:30.080Z,2.60
2023-04-02T13:36:58.817Z,2.40
2023-04-02T13:39:27.292Z,2.10
2023-04-02T13:41:58.315Z,2.55
2023-04-02T13:44:28.515Z,2.20
2023-04-02T13:46:58.653Z,2.40
2023-04-02T13:49:27.533Z,2.33
2023-04-02T13:51:58.773Z,3.08
2023-04-02T13:54:31.231Z,2.80
2023-04-02T13:56:59.453Z,2.47
2023-04-02T13:59:28.210Z,2.65
2023-04-02T14:02:00.630Z,2.80
2023-04-02T14:04:33.079Z,2.50
2023-04-02T14:07:27.347Z,2.53
2023-04-02T14:10:04.014Z,2.30
2023-04-02T14:12:46.966Z,2.70
2023-04-02T14:15:27.546Z,2.75
2023-04-02T14:18:18.809Z,2.58
2023-04-02T14:20:55.684Z,2.33
2023-04-02T14:23:40.721Z,2.50
2023-04-02T14:26:18.468Z,3.03
2023-04-02T14:28:57.549Z,2.20
2023-04-02T14:31:34.133Z,2.40
2023-04-02T14:34:12.601Z,2.25
2023-04-02T14:36:53.248Z,2.53
2023-04-02T14:39:33.628Z,2.58
2023-04-02T14:42:07.566Z,2.40
2023-04-02T14:44:41.114Z,2.92
2023-04-02T14:47:18.689Z,2.45
2023-04-02T14:49:51.759Z,2.70
2023-04-02T14:52:23.155Z,2.13
2023-04-02T14:54:54.491Z,2.85
2023-04-02T14:57:24.956Z,2.92
2023-04-02T15:00:01.817Z,3.30
2023-04-02T15:02:39.154Z,2.45
2023-04-02T15:05:17.686Z,3.10
2023-04-02T15:07:51.282Z,2.63
2023-04-02T15:10:27.103Z,2.50
2023-04-02T15:12:57.064Z,2.17
2023-04-02T15:15:40.346Z,2.10
2023-04-02T15:18:12.790Z,2.30
2023-04-02T15:20:53.586Z,2.25
2023-04-02T15:23:35.577Z,2.85
2023-04-02T15:26:12.353Z,2.78
2023-04-02T15:28:44.879Z,2.00
2023-04-02T15:31:15.423Z,2.22
2023-04-02T15:33:46.117Z,2.80
2023-04-02T15:36:52.618Z,2.30
2023-04-02T15:39:44.585Z,2.17
2023-04-02T15:42:19.607Z,2.00
2023-04-02T15:45:13.989Z,2.38
2023-04-02T15:47:51.915Z,2.30
2023-04-02T15:50:44.086Z,1.70
2023-04-02T15:53:34.587Z,1.80
2023-04-02T15:56:14.993Z,2.45
2023-04-02T15:59:16.642Z,1.70
2023-04-02T16:01:55.212Z,1.65
2023-04-02T16:04:47.373Z,1.45
2023-04-02T16:07:30.800Z,1.40
2023-04-02T16:10:08.557Z,1.60
2023-04-02T16:12:40.632Z,1.65
2023-04-02T16:15:15.797Z,1.67
2023-04-02T16:17:47.559Z,1.60
2023-04-02T16:20:23.932Z,1.50
2023-04-02T16:23:00.790Z,1.30
2023-04-02T16:25:33.036Z,1.33
2023-04-02T16:28:14.924Z,1.60
2023-04-02T16:30:51.374Z,1.60
2023-04-02T16:33:30.654Z,1.52
2023-04-02T16:36:10.185Z,1.90
2023-04-02T16:38:51.221Z,1.80
2023-04-02T16:41:29.598Z,1.67
2023-04-02T16:44:08.758Z,1.80
2023-04-02T16:46:46.219Z,2.00
2023-04-02T16:49:24.574Z,1.83
2023-04-02T16:52:08.009Z,1.70
2023-04-02T16:54:47.365Z,1.95
2023-04-02T16:57:25.752Z,2.22
2023-04-02T17:00:02.107Z,2.25
2023-04-02T17:02:43.475Z,1.95
2023-04-02T17:05:23.210Z,2.08
2023-04-02T17:08:01.725Z,2.22
2023-04-02T17:10:32.582Z,1.88
2023-04-02T17:13:15.165Z,2.25
2023-04-02T17:15:49.643Z,2.00
2023-04-02T17:18:20.045Z,2.35
2023-04-02T17:20:48.796Z,2.10
2023-04-02T17:23:19.045Z,1.73
2023-04-02T17:25:52.955Z,1.60
2023-04-02T17:28:29.172Z,1.52
2023-04-02T17:31:01.295Z,2.20
2023-04-02T17:33:29.519Z,1.90
2023-04-02T17:36:12.664Z,1.80
2023-04-02T17:38:48.125Z,2.28
2023-04-02T17:43:56.965Z,2.15
2023-04-02T17:46:35.797Z,2.30
2023-04-02T17:49:11.904Z,2.42
2023-04-02T17:51:45.324Z,2.20
2023-04-02T17:54:30.123Z,1.80
2023-04-02T17:57:14.889Z,2.50
2023-04-02T17:59:56.572Z,2.17
2023-04-02T18:02:43.566Z,2.35
2023-04-02T18:05:21.330Z,2.70
2023-04-02T18:07:55.873Z,2.80
2023-04-02T18:10:31.438Z,2.60
2023-04-02T18:15:59.532Z,2.63
2023-04-02T18:18:50.842Z,2.55
2023-04-02T18:21:25.962Z,2.33
2023-04-02T18:24:05.936Z,2.63
2023-04-02T18:26:43.531Z,3.20
2023-04-02T18:29:24.311Z,2.33
2023-04-02T18:32:00.014Z,2.35
2023-04-02T18:34:51.940Z,2.80
2023-04-02T18:37:28.393Z,2.45
2023-04-02T18:40:29.793Z,2.28
2023-04-02T18:43:06.683Z,2.35
2023-04-02T18:45:42.792Z,1.92
2023-04-02T18:48:23.470Z,2.22
2023-04-02T18:50:55.103Z,2.63
2023-04-02T18:53:25.508Z,2.70
2023-04-02T18:55:58.076Z,2.75
2023-04-02T18:58:31.200Z,2.78
2023-04-02T19:01:00.501Z,2.40
2023-04-02T19:03:32.757Z,2.35
2023-04-02T19:06:05.640Z,2.40
2023-04-02T19:08:38.862Z,2.10
2023-04-02T19:11:12.204Z,2.20
2023-04-02T19:13:40.574Z,2.28
2023-04-02T19:16:42.207Z,2.10
2023-04-02T19:19:17.075Z,2.78
2023-04-02T19:22:10.391Z,2.42
2023-04-02T19:25:05.350Z,2.40
2023-04-02T19:27:42.336Z,3.13
2023-04-02T19:30:35.654Z,4.32
2023-04-02T19:33:16.671Z,2.78
2023-04-02T19:35:48.882Z,5.95
2023-04-02T19:38:37.919Z,5.60
2023-04-02T19:41:14.780Z,4.57
2023-04-02T19:43:43.025Z,5.68
2023-04-02T19:46:11.187Z,8.43
2023-04-02T19:48:46.136Z,7.47
2023-04-02T19:51:14.268Z,6.72
2023-04-02T19:53:43.814Z,6.70
2023-04-02T19:56:12.214Z,5.88
2023-04-02T19:58:40.394Z,4.38
2023-04-02T20:01:08.578Z,6.25
2023-04-02T20:03:36.807Z,3.92
2023-04-02T20:06:05.119Z,5.10
2023-04-02T20:08:33.507Z,4.68
2023-04-02T20:11:03.392Z,4.07
2023-04-02T20:13:31.578Z,4.10
2023-04-02T20:16:00.839Z,3.97
2023-04-02T20:18:29.378Z,6.07
2023-04-02T20:20:57.529Z,4.10
2023-04-02T20:23:26.141Z,3.90
2023-04-02T20:25:57.487Z,4.40
2023-04-02T20:28:28.694Z,5.18
2023-04-02T20:31:07.264Z,4.50
2023-04-02T20:33:35.745Z,3.65
2023-04-02T20:36:06.853Z,3.80
2023-04-02T20:38:35.977Z,5.10
2023-04-02T20:41:05.967Z,4.60
2023-04-02T20:43:36.232Z,5.57
2023-04-02T20:46:08.364Z,5.50
2023-04-02T20:48:38.395Z,4.22
2023-04-02T20:51:08.477Z,4.45
2023-04-02T20:53:38.115Z,5.30
2023-04-02T20:56:10.961Z,5.18
2023-04-02T20:58:41.014Z,4.50
2023-04-02T21:01:11.950Z,4.43
2023-04-02T21:03:40.594Z,3.97
2023-04-02T21:06:14.927Z,4.65
2023-04-02T21:08:43.894Z,5.45
2023-04-02T21:11:12.933Z,5.07
2023-04-02T21:13:44.207Z,6.95
2023-04-02T21:16:16.125Z,5.57
2023-04-02T21:18:45.157Z,6.10
2023-04-02T21:21:15.047Z,5.78
2023-04-02T21:23:43.963Z,6.35
2023-04-02T21:26:14.608Z,5.13
2023-04-02T21:28:44.816Z,4.22
2023-04-02T21:31:14.970Z,4.93
2023-04-02T21:33:44.441Z,4.97
2023-04-02T21:36:14.617Z,3.90
2023-04-02T21:38:44.033Z,4.78
2023-04-02T21:41:17.149Z,5.05
2023-04-02T21:43:48.362Z,5.65
2023-04-02T21:46:17.160Z,5.57
2023-04-02T21:48:45.888Z,5.18
2023-04-02T21:51:17.027Z,5.53
2023-04-02T21:53:46.088Z,5.05
2023-04-02T21:56:16.556Z,6.10
2023-04-02T21:58:46.818Z,6.18
2023-04-02T22:01:26.705Z,5.20
2023-04-02T22:03:56.578Z,5.68
2023-04-02T22:06:26.872Z,7.47
2023-04-02T22:08:56.924Z,6.28
2023-04-02T22:11:27.093Z,5.68
2023-04-02T22:13:56.995Z,5.22
2023-04-02T22:16:28.214Z,5.50
2023-04-02T22:18:58.624Z,5.57
2023-04-02T22:21:27.276Z,4.80
2023-04-02T22:23:56.031Z,5.00
2023-04-02T22:26:24.673Z,5.95
2023-04-02T22:28:53.077Z,5.10
2023-04-02T22:31:24.768Z,4.82
2023-04-02T22:33:54.213Z,6.13
2023-04-02T22:36:23.162Z,4.97
2023-04-02T22:38:51.908Z,5.55
2023-04-02T22:41:22.409Z,6.85
2023-04-02T22:43:51.044Z,5.22
2023-04-02T22:46:20.876Z,4.40
2023-04-02T22:48:51.231Z,4.43
2023-04-02T22:51:21.419Z,5.82
2023-04-02T22:53:50.535Z,4.90
2023-04-02T22:56:22.041Z,4.55
2023-04-02T22:58:50.694Z,5.38
2023-04-02T23:01:21.943Z,4.88
2023-04-02T23:03:53.486Z,5.22
2023-04-02T23:06:22.083Z,5.95
2023-04-02T23:08:50.479Z,5.68
2023-04-02T23:11:21.329Z,4.43
2023-04-02T23:13:51.456Z,5.50
2023-04-02T23:16:22.843Z,5.85
2023-04-02T23:18:52.657Z,6.25
2023-04-02T23:21:22.236Z,4.63
2023-04-02T23:23:51.505Z,4.50
2023-04-02T23:26:22.356Z,5.60
2023-04-02T23:28:51.341Z,5.68
2023-04-02T23:31:21.343Z,4.28
2023-04-02T23:33:50.518Z,4.68
2023-04-02T23:36:25.592Z,5.32
2023-04-02T23:38:55.495Z,4.57
2023-04-02T23:41:26.891Z,4.78
2023-04-02T23:43:55.388Z,5.50
2023-04-02T23:46:24.219Z,5.20
2023-04-02T23:48:52.414Z,4.60
2023-04-02T23:51:22.405Z,4.30
2023-04-02T23:53:51.677Z,4.72
2023-04-02T23:56:20.832Z,4.70
2023-04-02T23:58:49.485Z,5.10
